Time;durP1;ratioP1;P1;durP2;ratioP2;P2;SDS_P1;SDS_P2;PMS_P1;PMS_P2;Temp;Humidity;BMP_temperature;BMP_pressure;BME280_temperature;BME280_humidity;BME280_pressure;Samples;Min_cycle;Max_cycle;Signal;HPM_P1;HPM_P2
2022/01/31 00:00:08;;;;;;;17.40;3.60;;;;;3.80;96531.00;;;;8406757;28;20241;-73
2022/01/31 00:04:12;;;;;;;15.63;2.97;;;;;3.90;96521.00;;;;8414556;28;20280;-73
2022/01/31 00:08:21;;;;;;;18.00;3.23;;;;;3.80;96518.00;;;;8415318;28;20287;-73
2022/01/31 00:12:28;;;;;;;14.53;3.10;;;;;3.80;96522.00;;;;8411790;28;20233;-73
2022/01/31 00:16:32;;;;;;;12.83;3.03;;;;;3.90;96526.00;;;;8398576;28;20252;-72
2022/01/31 00:20:37;;;;;;;11.90;2.90;;;;;3.90;96515.00;;;;8414760;28;20258;-72
2022/01/31 00:24:41;;;;;;;19.87;3.90;;;;;3.90;96507.00;;;;8418299;28;20225;-72
2022/01/31 00:28:44;;;;;;;14.43;3.17;;;;;3.90;96489.00;;;;8414457;28;20228;-73
2022/01/31 00:32:48;;;;;;;16.03;3.07;;;;;4.00;96484.00;;;;8417532;28;20773;-73
2022/01/31 00:36:52;;;;;;;18.07;3.10;;;;;3.90;96456.00;;;;8410261;28;20707;-73
2022/01/31 00:40:55;;;;;;;15.10;3.20;;;;;3.90;96445.00;;;;8416909;28;20624;-73
2022/01/31 00:45:09;;;;;;;14.60;3.20;;;;;3.80;96436.00;;;;8410342;28;20347;-72
2022/01/31 00:49:22;;;;;;;13.00;3.00;;;;;3.70;96425.00;;;;8405667;28;20305;-73
2022/01/31 00:53:27;;;;;;;12.30;3.20;;;;;3.60;96416.00;;;;8412465;28;20905;-72
2022/01/31 00:57:30;;;;;;;17.23;3.20;;;;;3.50;96422.00;;;;8402175;28;20318;-72
2022/01/31 01:01:33;;;;;;;10.70;2.83;;;;;3.50;96401.00;;;;8413439;28;20769;-72
2022/01/31 01:05:36;;;;;;;12.23;3.10;;;;;3.50;96386.00;;;;8410196;28;20231;-72
2022/01/31 01:09:41;;;;;;;13.30;2.90;;;;;3.50;96375.00;;;;8407703;28;20325;-72
2022/01/31 01:13:44;;;;;;;12.57;2.50;;;;;3.40;96364.00;;;;8412927;28;20753;-72
2022/01/31 01:17:47;;;;;;;13.80;2.83;;;;;3.40;96381.00;;;;8408359;28;20226;-73
2022/01/31 01:21:50;;;;;;;18.30;3.47;;;;;3.40;96384.00;;;;8407528;28;20278;-73
2022/01/31 01:25:54;;;;;;;14.87;3.13;;;;;3.40;96381.00;;;;8419906;28;20300;-73
2022/01/31 01:29:57;;;;;;;10.60;2.50;;;;;3.30;96374.00;;;;8416213;28;20237;-73
2022/01/31 01:34:00;;;;;;;17.07;3.17;;;;;3.30;96373.00;;;;8411699;28;20240;-73
2022/01/31 01:38:07;;;;;;;15.60;3.10;;;;;3.30;96362.00;;;;8414455;28;20232;-73
2022/01/31 01:42:12;;;;;;;9.97;2.57;;;;;3.20;96336.00;;;;8411713;28;20229;-73
2022/01/31 01:46:15;;;;;;;10.10;2.63;;;;;3.20;96325.00;;;;8413411;28;20229;-72
2022/01/31 01:50:18;;;;;;;11.17;3.33;;;;;3.20;96298.00;;;;8414978;28;20263;-72
2022/01/31 01:54:21;;;;;;;16.13;3.20;;;;;3.20;96313.00;;;;8416714;28;20220;-72
2022/01/31 01:58:36;;;;;;;14.83;3.33;;;;;3.10;96281.00;;;;8414701;28;20229;-72
2022/01/31 02:02:39;;;;;;;16.13;3.93;;;;;3.10;96251.00;;;;8408627;28;21003;-71
2022/01/31 02:06:45;;;;;;;11.50;2.77;;;;;3.20;96238.00;;;;8403537;28;20633;-71
2022/01/31 02:10:48;;;;;;;13.67;3.10;;;;;3.20;96231.00;;;;8408646;28;20224;-71
2022/01/31 02:14:52;;;;;;;11.00;2.93;;;;;3.10;96203.00;;;;8417393;28;20226;-69
2022/01/31 02:18:55;;;;;;;10.63;3.40;;;;;3.20;96184.00;;;;8416459;28;20289;-70
2022/01/31 02:23:01;;;;;;;9.50;3.37;;;;;3.20;96180.00;;;;8412238;28;20832;-70
2022/01/31 02:27:05;;;;;;;11.70;3.00;;;;;3.20;96178.00;;;;8413887;28;20248;-70
2022/01/31 02:31:08;;;;;;;10.13;3.50;;;;;3.20;96151.00;;;;8415480;28;20240;-70
2022/01/31 02:35:12;;;;;;;13.37;3.50;;;;;3.20;96125.00;;;;8408479;28;20285;-70
2022/01/31 02:39:17;;;;;;;15.90;3.67;;;;;3.20;96126.00;;;;8413069;28;20233;-70
2022/01/31 02:43:21;;;;;;;12.93;3.60;;;;;3.20;96112.00;;;;8415041;28;20231;-71
2022/01/31 02:47:26;;;;;;;10.57;3.10;;;;;3.20;96090.00;;;;8413961;28;20230;-70
2022/01/31 02:51:31;;;;;;;11.47;3.87;;;;;3.20;96083.00;;;;8410493;28;20224;-70
2022/01/31 02:55:36;;;;;;;11.70;3.27;;;;;3.20;96064.00;;;;8401954;28;20274;-70
2022/01/31 02:59:39;;;;;;;11.97;3.13;;;;;3.10;96068.00;;;;8405012;28;20725;-70
2022/01/31 03:03:42;;;;;;;15.50;3.47;;;;;3.10;96039.00;;;;8423281;22;20274;-70
2022/01/31 03:07:45;;;;;;;10.50;3.60;;;;;3.10;96037.00;;;;8423616;28;20575;-70
2022/01/31 03:11:49;;;;;;;10.33;3.30;;;;;3.10;96018.00;;;;8424215;28;20240;-70
2022/01/31 03:15:52;;;;;;;9.10;3.43;;;;;3.10;96007.00;;;;8418064;28;20785;-70
2022/01/31 03:19:55;;;;;;;9.13;3.50;;;;;3.10;96003.00;;;;8427296;28;20251;-70
2022/01/31 03:23:58;;;;;;;14.13;3.47;;;;;3.10;96008.00;;;;8432531;28;20260;-70
2022/01/31 03:28:02;;;;;;;12.60;3.00;;;;;3.10;95990.00;;;;8418118;28;20244;-70
2022/01/31 03:32:06;;;;;;;14.77;3.30;;;;;3.10;95945.00;;;;8420391;28;20234;-70
2022/01/31 03:36:09;;;;;;;14.27;3.57;;;;;3.10;95938.00;;;;8431162;28;20233;-70
2022/01/31 03:40:13;;;;;;;7.80;3.50;;;;;3.10;95955.00;;;;8424307;28;20314;-70
2022/01/31 03:44:17;;;;;;;8.23;3.20;;;;;3.10;95940.00;;;;8430261;28;20282;-70
2022/01/31 03:48:20;;;;;;;10.43;3.63;;;;;3.00;95924.00;;;;8416142;28;20930;-70
2022/01/31 03:52:23;;;;;;;19.30;4.00;;;;;3.00;95919.00;;;;8425124;28;20227;-70
2022/01/31 03:56:26;;;;;;;12.93;3.63;;;;;3.00;95885.00;;;;8430697;28;20223;-70
2022/01/31 04:00:30;;;;;;;12.33;3.13;;;;;3.00;95870.00;;;;8426992;28;20585;-70
2022/01/31 04:04:33;;;;;;;12.80;3.87;;;;;3.00;95880.00;;;;8411888;28;20643;-70
2022/01/31 04:08:36;;;;;;;10.43;3.23;;;;;3.00;95875.00;;;;8414627;28;20275;-68
2022/01/31 04:12:39;;;;;;;19.67;3.60;;;;;3.00;95885.00;;;;8405165;28;20287;-69
2022/01/31 04:16:44;;;;;;;12.07;3.23;;;;;3.00;95873.00;;;;8419355;28;20569;-70
2022/01/31 04:20:47;;;;;;;15.13;3.87;;;;;3.10;95881.00;;;;8418762;28;20279;-69
2022/01/31 04:24:54;;;;;;;11.23;3.10;;;;;3.10;95869.00;;;;8419730;28;20283;-69
2022/01/31 04:29:04;;;;;;;13.63;3.00;;;;;3.20;95847.00;;;;8414980;28;20629;-69
2022/01/31 04:33:08;;;;;;;11.47;3.23;;;;;3.20;95824.00;;;;8415870;28;20293;-69
2022/01/31 04:37:11;;;;;;;10.43;3.57;;;;;3.20;95830.00;;;;8412815;28;20290;-69
2022/01/31 04:41:15;;;;;;;20.50;4.03;;;;;3.20;95850.00;;;;8413017;28;20252;-68
2022/01/31 04:45:18;;;;;;;14.90;4.07;;;;;3.20;95818.00;;;;8408310;28;20223;-69
2022/01/31 04:49:23;;;;;;;12.83;4.00;;;;;3.20;95821.00;;;;8416595;28;20220;-69
2022/01/31 04:53:26;;;;;;;10.90;3.43;;;;;3.30;95835.00;;;;8419042;28;20688;-69
2022/01/31 04:57:29;;;;;;;12.17;3.63;;;;;3.30;95828.00;;;;8410564;28;20228;-69
2022/01/31 05:01:32;;;;;;;9.47;2.97;;;;;3.30;95815.00;;;;8410665;28;20285;-71
2022/01/31 05:05:37;;;;;;;19.40;4.20;;;;;3.30;95796.00;;;;8414321;28;20329;-70
2022/01/31 05:09:40;;;;;;;22.47;3.47;;;;;3.30;95786.00;;;;8417523;28;20291;-71
2022/01/31 05:13:43;;;;;;;8.70;2.90;;;;;3.30;95768.00;;;;8408312;28;20628;-71
2022/01/31 05:17:46;;;;;;;14.40;3.37;;;;;3.30;95755.00;;;;8396580;28;20221;-70
2022/01/31 05:21:50;;;;;;;12.60;3.97;;;;;3.40;95740.00;;;;8412304;28;20266;-69
2022/01/31 05:25:53;;;;;;;13.50;3.37;;;;;3.40;95743.00;;;;8410620;28;20223;-70
2022/01/31 05:29:56;;;;;;;19.53;3.57;;;;;3.40;95738.00;;;;8403806;28;20233;-69
2022/01/31 05:33:59;;;;;;;15.30;3.40;;;;;3.40;95721.00;;;;8404438;28;20231;-70
2022/01/31 05:38:03;;;;;;;16.03;3.73;;;;;3.40;95706.00;;;;8415500;28;20272;-71
2022/01/31 05:42:07;;;;;;;7.40;3.10;;;;;3.50;95686.00;;;;8399086;28;20229;-71
2022/01/31 05:46:10;;;;;;;17.73;3.43;;;;;3.50;95678.00;;;;8411062;28;20235;-71
2022/01/31 05:50:13;;;;;;;18.97;3.57;;;;;3.50;95652.00;;;;8409213;28;20243;-70
2022/01/31 05:54:17;;;;;;;18.10;3.80;;;;;3.60;95643.00;;;;8412583;28;20238;-70
2022/01/31 05:58:20;;;;;;;20.57;4.10;;;;;3.60;95652.00;;;;8407847;28;20259;-70
2022/01/31 06:02:23;;;;;;;7.90;2.83;;;;;3.60;95629.00;;;;8409294;28;20235;-70
2022/01/31 06:06:27;;;;;;;15.67;4.10;;;;;3.60;95626.00;;;;8416523;28;20242;-70
2022/01/31 06:10:33;;;;;;;16.90;4.13;;;;;3.60;95607.00;;;;8422922;28;20228;-69
2022/01/31 06:14:36;;;;;;;18.17;3.87;;;;;3.60;95581.00;;;;8422983;28;20283;-70
2022/01/31 06:18:39;;;;;;;11.50;4.20;;;;;3.60;95576.00;;;;8410888;28;20284;-71
2022/01/31 06:22:47;;;;;;;10.77;4.67;;;;;3.50;95556.00;;;;8398578;28;20287;-70
2022/01/31 06:26:51;;;;;;;11.43;4.30;;;;;3.50;95567.00;;;;8407384;28;20233;-71
2022/01/31 06:30:54;;;;;;;19.43;4.43;;;;;3.50;95566.00;;;;8415677;28;20217;-71
2022/01/31 06:34:57;;;;;;;12.80;4.20;;;;;3.50;95542.00;;;;8419710;28;20667;-71
2022/01/31 06:39:01;;;;;;;14.17;4.70;;;;;3.50;95521.00;;;;8410185;28;20237;-70
2022/01/31 06:43:05;;;;;;;16.20;5.70;;;;;3.50;95517.00;;;;8413115;28;20278;-71
2022/01/31 06:47:08;;;;;;;16.80;5.40;;;;;3.50;95513.00;;;;8412870;28;20609;-72
2022/01/31 06:51:11;;;;;;;12.73;4.70;;;;;3.50;95496.00;;;;8407206;28;20236;-71
2022/01/31 06:55:19;;;;;;;12.43;4.87;;;;;3.50;95491.00;;;;8402042;28;20284;-71
2022/01/31 06:59:24;;;;;;;16.30;4.97;;;;;3.60;95472.00;;;;8410063;28;20628;-71
2022/01/31 07:03:27;;;;;;;21.07;5.43;;;;;3.50;95464.00;;;;8428159;28;20236;-71
2022/01/31 07:07:30;;;;;;;23.97;5.10;;;;;3.60;95465.00;;;;8414790;28;20249;-70
2022/01/31 07:11:38;;;;;;;7.07;4.33;;;;;3.60;95445.00;;;;8402711;28;20234;-70
2022/01/31 07:15:42;;;;;;;17.57;5.63;;;;;3.60;95452.00;;;;8408187;28;20372;-71
2022/01/31 07:19:45;;;;;;;16.90;5.27;;;;;3.60;95452.00;;;;8408837;28;20294;-72
2022/01/31 07:24:04;;;;;;;12.40;5.23;;;;;3.60;95445.00;;;;8393934;28;20286;-72
2022/01/31 07:28:11;;;;;;;16.70;5.07;;;;;3.60;95445.00;;;;8401621;28;20242;-74
2022/01/31 07:32:15;;;;;;;16.83;4.97;;;;;3.30;95444.00;;;;8409497;28;20290;-72
2022/01/31 07:36:18;;;;;;;12.97;5.40;;;;;3.20;95429.00;;;;8411280;28;20643;-72
2022/01/31 07:40:21;;;;;;;15.43;4.90;;;;;3.20;95436.00;;;;8399697;28;20278;-71
2022/01/31 07:44:24;;;;;;;14.43;4.27;;;;;3.10;95434.00;;;;8400291;28;20235;-71
2022/01/31 07:48:31;;;;;;;17.63;6.03;;;;;3.00;95428.00;;;;8402358;28;20219;-71
2022/01/31 07:52:34;;;;;;;14.60;4.97;;;;;2.90;95427.00;;;;8397329;28;20233;-71
2022/01/31 07:56:37;;;;;;;18.83;5.83;;;;;2.80;95423.00;;;;8397721;28;20224;-72
2022/01/31 08:00:41;;;;;;;21.60;5.63;;;;;2.70;95409.00;;;;8397899;28;20268;-71
2022/01/31 08:04:46;;;;;;;12.03;5.03;;;;;2.70;95398.00;;;;8403033;28;20579;-74
2022/01/31 08:08:50;;;;;;;15.13;5.03;;;;;2.70;95386.00;;;;8399574;28;20240;-73
2022/01/31 08:12:55;;;;;;;11.60;5.47;;;;;2.80;95390.00;;;;8396858;28;20232;-74
2022/01/31 08:17:04;;;;;;;16.50;5.23;;;;;2.80;95373.00;;;;8401397;28;20271;-76
2022/01/31 08:21:10;;;;;;;13.13;5.50;;;;;2.80;95362.00;;;;8401577;28;20359;-75
2022/01/31 08:25:14;;;;;;;13.53;5.67;;;;;2.80;95363.00;;;;8396901;28;20227;-75
2022/01/31 08:29:22;;;;;;;11.80;4.77;;;;;2.80;95349.00;;;;8397410;28;20728;-76
2022/01/31 08:33:42;;;;;;;7.17;3.90;;;;;2.80;95336.00;;;;8404201;28;20232;-76
2022/01/31 08:37:46;;;;;;;17.00;5.27;;;;;2.80;95335.00;;;;8414707;28;20233;-75
2022/01/31 08:41:52;;;;;;;9.07;4.13;;;;;2.90;95326.00;;;;8420200;28;20726;-73
2022/01/31 08:45:56;;;;;;;9.70;3.80;;;;;2.90;95301.00;;;;8426979;28;20230;-74
2022/01/31 08:49:59;;;;;;;10.07;3.53;;;;;2.90;95322.00;;;;8412565;28;20226;-73
2022/01/31 08:54:05;;;;;;;14.07;4.03;;;;;2.90;95309.00;;;;8417069;28;20243;-75
2022/01/31 08:58:10;;;;;;;15.90;3.30;;;;;2.90;95307.00;;;;8420064;28;20218;-76
2022/01/31 09:02:16;;;;;;;6.50;2.97;;;;;2.90;95303.00;;;;8417221;28;20259;-77
2022/01/31 09:06:21;;;;;;;5.47;3.03;;;;;2.90;95290.00;;;;8411208;28;20689;-76
2022/01/31 09:10:26;;;;;;;11.97;4.50;;;;;2.90;95287.00;;;;8419094;28;20229;-76
2022/01/31 09:14:28;;;;;;;19.50;7.37;;;;;3.00;95291.00;;;;8406483;28;20242;-76
2022/01/31 09:18:31;;;;;;;7.53;4.10;;;;;3.00;95281.00;;;;8418435;28;20231;-76
2022/01/31 09:22:35;;;;;;;3.30;3.00;;;;;3.00;95266.00;;;;8416780;28;20229;-75
2022/01/31 09:26:39;;;;;;;6.07;2.90;;;;;3.10;95281.00;;;;8405083;28;20302;-72
2022/01/31 09:30:44;;;;;;;4.77;3.47;;;;;3.10;95273.00;;;;8394992;28;20275;-73
2022/01/31 09:34:47;;;;;;;8.00;3.70;;;;;3.20;95281.00;;;;8410123;28;20325;-73
2022/01/31 09:38:50;;;;;;;8.77;4.43;;;;;3.20;95283.00;;;;8415280;28;20221;-73
2022/01/31 09:43:11;;;;;;;11.90;4.83;;;;;3.20;95276.00;;;;8410682;28;20230;-73
2022/01/31 09:47:23;;;;;;;11.23;6.87;;;;;3.20;95286.00;;;;8416773;28;21664;-72
2022/01/31 09:51:27;;;;;;;15.60;6.77;;;;;3.20;95280.00;;;;8420403;28;20731;-73
2022/01/31 09:55:30;;;;;;;10.27;4.13;;;;;3.20;95286.00;;;;8405934;28;20229;-73
2022/01/31 09:59:35;;;;;;;4.90;3.50;;;;;3.30;95289.00;;;;8418579;28;20260;-73
2022/01/31 10:03:45;;;;;;;6.93;5.97;;;;;3.30;95306.00;;;;8401425;28;20294;-73
2022/01/31 10:07:48;;;;;;;3.80;2.17;;;;;3.40;95309.00;;;;8421377;28;20221;-73
2022/01/31 10:11:56;;;;;;;2.60;2.37;;;;;3.50;95311.00;;;;8402144;28;20223;-72
2022/01/31 10:20:28;;;;;;;4.33;1.80;;;;;3.80;95325.00;;;;8411245;28;20271;-75
2022/01/31 10:24:33;;;;;;;4.27;3.87;;;;;3.90;95310.00;;;;8422360;28;20228;-74
2022/01/31 10:28:40;;;;;;;3.90;2.50;;;;;4.00;95295.00;;;;8419110;28;20565;-77
2022/01/31 10:32:46;;;;;;;1.70;1.60;;;;;4.00;95293.00;;;;8401096;28;20218;-78
2022/01/31 10:36:49;;;;;;;5.60;3.50;;;;;4.00;95299.00;;;;8413193;28;20751;-77
2022/01/31 10:54:11;;;;;;;3.63;2.70;;;;;4.00;95291.00;;;;8414422;28;20628;-80
2022/01/31 10:58:14;;;;;;;1.70;1.60;;;;;3.90;95296.00;;;;8414208;28;20722;-85
2022/01/31 11:02:20;;;;;;;1.90;1.80;;;;;3.90;95287.00;;;;8395668;28;20233;-86
2022/01/31 11:06:25;;;;;;;2.57;2.37;;;;;4.00;95280.00;;;;8398718;28;20231;-86
2022/01/31 11:10:28;;;;;;;4.80;4.30;;;;;4.00;95276.00;;;;8397443;28;20513;-83
2022/01/31 11:14:32;;;;;;;2.17;2.03;;;;;4.00;95282.00;;;;8401237;28;20779;-83
2022/01/31 11:18:36;;;;;;;4.40;2.70;;;;;4.00;95265.00;;;;8395935;28;20232;-83
2022/01/31 11:22:42;;;;;;;2.00;1.90;;;;;4.10;95258.00;;;;8397416;28;20218;-86
2022/01/31 11:26:51;;;;;;;2.30;1.80;;;;;4.30;95260.00;;;;8395805;28;20318;-82
2022/01/31 11:30:54;;;;;;;1.57;1.47;;;;;4.50;95254.00;;;;8399013;28;20258;-82
2022/01/31 11:34:57;;;;;;;2.70;1.80;;;;;4.70;95238.00;;;;8406708;28;20715;-80
2022/01/31 11:39:04;;;;;;;3.70;1.80;;;;;4.70;95252.00;;;;8402032;28;20244;-81
2022/01/31 11:43:09;;;;;;;3.50;2.00;;;;;4.70;95236.00;;;;8397082;28;20304;-80
2022/01/31 11:47:13;;;;;;;2.27;2.07;;;;;4.80;95231.00;;;;8401548;28;20217;-79
2022/01/31 11:51:16;;;;;;;1.73;1.50;;;;;4.80;95229.00;;;;8409212;28;20259;-79
2022/01/31 11:55:22;;;;;;;4.40;2.80;;;;;4.60;95224.00;;;;8408568;28;20227;-78
2022/01/31 11:59:26;;;;;;;1.60;1.50;;;;;4.50;95213.00;;;;8406661;28;20233;-79
2022/01/31 12:03:30;;;;;;;1.73;1.63;;;;;4.40;95198.00;;;;8414110;28;20725;-76
2022/01/31 12:07:39;;;;;;;2.60;1.80;;;;;4.40;95209.00;;;;8416631;28;20234;-76
2022/01/31 12:11:56;;;;;;;2.30;1.90;;;;;4.30;95208.00;;;;8400298;28;20713;-75
2022/01/31 12:16:07;;;;;;;1.67;1.57;;;;;4.20;95194.00;;;;8402699;28;20357;-74
2022/01/31 12:20:25;;;;;;;1.70;1.60;;;;;4.10;95203.00;;;;8409212;28;20239;-75
2022/01/31 12:24:32;;;;;;;4.57;1.90;;;;;4.10;95194.00;;;;8419265;28;20225;-74
2022/01/31 12:28:38;;;;;;;1.80;1.70;;;;;4.10;95189.00;;;;8419881;28;20230;-76
2022/01/31 12:32:41;;;;;;;2.10;1.70;;;;;4.00;95190.00;;;;8422477;28;20634;-76
2022/01/31 12:36:52;;;;;;;5.27;2.33;;;;;4.00;95186.00;;;;8423491;28;20231;-74
2022/01/31 12:41:01;;;;;;;3.50;1.80;;;;;4.00;95192.00;;;;8410350;28;20227;-77
2022/01/31 12:45:06;;;;;;;6.10;1.60;;;;;4.00;95185.00;;;;8417423;28;20245;-77
2022/01/31 12:49:11;;;;;;;2.80;2.20;;;;;3.90;95188.00;;;;8416496;28;20222;-79
2022/01/31 12:53:43;;;;;;;3.07;1.73;;;;;3.90;95187.00;;;;8403474;28;20700;-81
2022/01/31 12:57:49;;;;;;;3.57;1.67;;;;;3.90;95168.00;;;;8408692;28;20322;-81
2022/01/31 13:01:54;;;;;;;2.00;1.80;;;;;3.90;95163.00;;;;8415141;28;20964;-81
2022/01/31 13:05:57;;;;;;;4.13;1.87;;;;;3.90;95176.00;;;;8417416;28;20988;-80
2022/01/31 13:10:09;;;;;;;5.20;1.93;;;;;3.90;95178.00;;;;8407309;28;20238;-81
2022/01/31 13:14:16;;;;;;;3.90;1.60;;;;;4.00;95184.00;;;;8417119;28;20239;-79
2022/01/31 13:18:41;;;;;;;3.50;1.80;;;;;4.00;95172.00;;;;8414112;28;20218;-78
2022/01/31 13:22:44;;;;;;;2.37;1.47;;;;;4.00;95167.00;;;;8404551;28;21103;-79
2022/01/31 13:26:52;;;;;;;3.37;1.63;;;;;4.00;95166.00;;;;8406248;28;20227;-81
2022/01/31 13:31:04;;;;;;;2.70;1.80;;;;;3.90;95172.00;;;;8407309;28;20223;-81
2022/01/31 13:35:10;;;;;;;4.17;2.13;;;;;3.90;95165.00;;;;8410705;28;20296;-80
2022/01/31 13:39:21;;;;;;;2.23;1.80;;;;;3.90;95165.00;;;;8404034;28;20283;-82
2022/01/31 13:43:26;;;;;;;2.20;1.63;;;;;3.80;95143.00;;;;8412365;28;20268;-79
2022/01/31 13:47:36;;;;;;;3.20;1.97;;;;;3.90;95134.00;;;;8415419;28;20249;-82
2022/01/31 13:51:44;;;;;;;2.07;1.80;;;;;4.00;95151.00;;;;8405282;28;20291;-82
2022/01/31 13:55:50;;;;;;;4.73;2.00;;;;;3.90;95134.00;;;;8405204;28;20753;-82
2022/01/31 13:59:54;;;;;;;1.60;1.50;;;;;3.90;95145.00;;;;8405722;28;20319;-81
2022/01/31 14:03:58;;;;;;;2.43;2.10;;;;;3.90;95142.00;;;;8412838;28;20244;-81
2022/01/31 14:08:05;;;;;;;9.17;4.30;;;;;3.90;95147.00;;;;8413131;28;20292;-80
2022/01/31 14:12:15;;;;;;;25.97;12.33;;;;;3.80;95137.00;;;;8404284;28;20233;-81
2022/01/31 14:16:22;;;;;;;17.67;10.23;;;;;3.80;95131.00;;;;8409357;28;20238;-80
2022/01/31 14:20:26;;;;;;;74.73;28.20;;;;;3.90;95133.00;;;;8415070;28;20287;-81
2022/01/31 14:24:31;;;;;;;30.60;13.70;;;;;3.80;95143.00;;;;8410271;28;20235;-83
2022/01/31 14:28:39;;;;;;;31.53;15.93;;;;;3.70;95148.00;;;;8407234;28;20242;-83
2022/01/31 14:32:42;;;;;;;16.47;8.53;;;;;3.70;95145.00;;;;8397607;28;20225;-82
2022/01/31 14:36:49;;;;;;;4.73;3.47;;;;;3.60;95144.00;;;;8405549;28;20350;-81
2022/01/31 14:41:09;;;;;;;8.00;4.40;;;;;3.60;95125.00;;;;8405865;28;21736;-80
2022/01/31 14:49:40;;;;;;;4.80;2.67;;;;;3.50;95123.00;;;;8405208;28;20675;-81
2022/01/31 14:53:54;;;;;;;1.57;1.47;;;;;3.40;95123.00;;;;8398416;28;20274;-80
2022/01/31 14:57:58;;;;;;;7.23;3.53;;;;;3.40;95125.00;;;;8397001;28;20222;-79
2022/01/31 15:02:01;;;;;;;8.77;6.80;;;;;3.40;95135.00;;;;8399868;28;20291;-81
2022/01/31 15:06:25;;;;;;;6.07;2.80;;;;;3.30;95128.00;;;;8401623;28;20238;-81
2022/01/31 15:10:31;;;;;;;4.57;2.40;;;;;3.30;95136.00;;;;8392527;28;20233;-79
2022/01/31 15:14:36;;;;;;;1.47;1.37;;;;;3.30;95140.00;;;;8397784;28;20683;-79
2022/01/31 15:18:41;;;;;;;1.97;1.60;;;;;3.30;95137.00;;;;8398995;28;20231;-81
2022/01/31 15:22:53;;;;;;;3.53;2.50;;;;;3.20;95135.00;;;;8392308;28;20291;-83
2022/01/31 15:26:56;;;;;;;2.00;1.90;;;;;3.20;95145.00;;;;8397639;28;20226;-83
2022/01/31 15:31:02;;;;;;;2.03;1.80;;;;;3.20;95149.00;;;;8395259;28;20223;-89
2022/01/31 15:35:07;;;;;;;3.20;2.50;;;;;3.20;95157.00;;;;8394963;28;20270;-82
2022/01/31 15:39:12;;;;;;;2.23;1.30;;;;;3.20;95154.00;;;;8395574;28;20965;-83
2022/01/31 15:43:15;;;;;;;1.90;1.20;;;;;3.20;95162.00;;;;8395008;28;20234;-82
2022/01/31 15:47:20;;;;;;;2.23;0.90;;;;;3.20;95160.00;;;;8394918;28;20235;-82
2022/01/31 15:51:24;;;;;;;2.70;1.20;;;;;3.20;95161.00;;;;8402865;28;20230;-79
2022/01/31 15:55:27;;;;;;;1.70;1.10;;;;;3.20;95168.00;;;;8404618;28;20234;-81
2022/01/31 15:59:31;;;;;;;2.27;1.27;;;;;3.30;95165.00;;;;8401235;28;20221;-81
2022/01/31 16:03:35;;;;;;;1.00;1.00;;;;;3.30;95178.00;;;;8409710;28;20284;-82
2022/01/31 16:07:38;;;;;;;2.30;1.10;;;;;3.30;95183.00;;;;8415202;28;20614;-79
2022/01/31 16:11:42;;;;;;;0.93;0.93;;;;;3.30;95186.00;;;;8412181;28;20577;-79
2022/01/31 16:16:05;;;;;;;1.10;1.00;;;;;3.30;95201.00;;;;8409347;28;20237;-80
2022/01/31 16:20:12;;;;;;;1.00;1.00;;;;;3.30;95201.00;;;;8409736;28;20231;-82
2022/01/31 16:24:15;;;;;;;1.33;1.00;;;;;3.30;95213.00;;;;8406863;28;20225;-81
2022/01/31 16:28:20;;;;;;;0.90;0.90;;;;;3.30;95215.00;;;;8408431;28;20235;-81
2022/01/31 16:32:24;;;;;;;1.50;1.40;;;;;3.30;95223.00;;;;8402190;28;20269;-81
2022/01/31 16:36:29;;;;;;;0.83;0.83;;;;;3.30;95232.00;;;;8408656;28;20234;-81
2022/01/31 16:40:32;;;;;;;2.00;1.13;;;;;3.30;95240.00;;;;8412597;28;20626;-81
2022/01/31 16:44:35;;;;;;;1.00;1.00;;;;;3.30;95241.00;;;;8408062;28;20217;-81
2022/01/31 16:48:38;;;;;;;1.33;1.23;;;;;3.30;95243.00;;;;8406074;28;20231;-80
2022/01/31 16:52:43;;;;;;;1.00;1.00;;;;;3.30;95268.00;;;;8406631;28;20279;-81
2022/01/31 16:56:47;;;;;;;1.20;1.20;;;;;3.20;95258.00;;;;8401648;28;20306;-84
2022/01/31 17:00:50;;;;;;;1.20;1.20;;;;;3.30;95258.00;;;;8405517;28;20781;-82
2022/01/31 17:04:52;;;;;;;1.63;1.27;;;;;3.30;95265.00;;;;8402325;28;20231;-79
2022/01/31 17:08:57;;;;;;;1.30;1.20;;;;;3.30;95269.00;;;;8402100;28;20278;-78
2022/01/31 17:13:00;;;;;;;1.20;1.20;;;;;3.30;95265.00;;;;8411183;28;20257;-79
2022/01/31 17:17:06;;;;;;;1.43;1.33;;;;;3.30;95286.00;;;;8407158;28;20394;-78
2022/01/31 17:21:09;;;;;;;65.73;7.53;;;;;3.20;95290.00;;;;8410212;28;20298;-79
2022/01/31 17:25:14;;;;;;;1.10;1.00;;;;;3.20;95294.00;;;;8409622;28;20238;-78
2022/01/31 17:29:17;;;;;;;2.80;2.33;;;;;3.20;95303.00;;;;8406597;28;20226;-80
2022/01/31 17:33:20;;;;;;;54.80;25.67;;;;;3.30;95310.00;;;;8404535;28;20226;-80
2022/01/31 17:37:23;;;;;;;212.87;96.17;;;;;3.30;95309.00;;;;8407499;28;20566;-77
2022/01/31 17:41:28;;;;;;;14.73;8.17;;;;;3.20;95306.00;;;;8404432;28;20227;-79
2022/01/31 17:45:34;;;;;;;13.47;6.03;;;;;3.30;95325.00;;;;8407338;28;20222;-79
2022/01/31 17:49:37;;;;;;;5.73;3.30;;;;;3.20;95333.00;;;;8401180;28;20227;-79
2022/01/31 17:53:42;;;;;;;51.93;21.70;;;;;3.20;95340.00;;;;8403405;28;20235;-79
2022/01/31 17:57:48;;;;;;;9.37;5.67;;;;;3.20;95344.00;;;;8405853;28;20228;-78
2022/01/31 18:01:51;;;;;;;19.80;10.07;;;;;3.30;95350.00;;;;8401809;28;20278;-79
2022/01/31 18:05:54;;;;;;;2.47;2.27;;;;;3.30;95351.00;;;;8405787;28;20240;-79
2022/01/31 18:09:58;;;;;;;192.27;72.47;;;;;3.20;95359.00;;;;8407286;28;20219;-79
2022/01/31 18:14:02;;;;;;;190.30;63.00;;;;;3.20;95360.00;;;;8401342;28;20274;-79
2022/01/31 18:18:05;;;;;;;242.17;81.07;;;;;3.10;95364.00;;;;8396017;28;20235;-79
2022/01/31 18:22:09;;;;;;;67.67;21.70;;;;;3.10;95368.00;;;;8403304;28;20895;-79
2022/01/31 18:26:12;;;;;;;319.97;81.17;;;;;3.10;95372.00;;;;8410890;28;20933;-78
2022/01/31 18:30:17;;;;;;;1094.53;313.00;;;;;3.00;95371.00;;;;8409913;28;20227;-80
2022/01/31 18:34:20;;;;;;;224.27;54.40;;;;;3.10;95379.00;;;;8403335;28;20237;-80
2022/01/31 18:38:24;;;;;;;1343.47;368.43;;;;;3.20;95392.00;;;;8410370;28;20240;-80
2022/01/31 18:42:27;;;;;;;154.93;45.33;;;;;3.30;95386.00;;;;8407318;28;20250;-80
2022/01/31 18:46:33;;;;;;;59.97;21.27;;;;;3.40;95389.00;;;;8406358;28;20225;-80
2022/01/31 18:50:39;;;;;;;215.07;61.70;;;;;3.40;95391.00;;;;8407707;28;20254;-80
2022/01/31 18:54:42;;;;;;;149.87;41.33;;;;;3.50;95387.00;;;;8400685;28;20228;-80
2022/01/31 18:58:45;;;;;;;36.73;11.87;;;;;3.60;95402.00;;;;8398887;28;20763;-80
2022/01/31 19:02:53;;;;;;;248.37;82.17;;;;;3.60;95411.00;;;;8401203;28;20234;-80
2022/01/31 19:06:56;;;;;;;59.27;20.67;;;;;3.70;95421.00;;;;8394256;28;20221;-79
2022/01/31 19:11:05;;;;;;;74.20;22.97;;;;;3.70;95423.00;;;;8400627;28;20213;-79
2022/01/31 19:19:30;;;;;;;83.67;29.97;;;;;3.70;95438.00;;;;8395376;28;20233;-80
2022/01/31 19:23:34;;;;;;;241.03;91.17;;;;;3.80;95445.00;;;;8398201;28;20227;-80
2022/01/31 19:27:37;;;;;;;3.80;2.93;;;;;3.80;95452.00;;;;8399308;28;20317;-80
2022/01/31 19:31:40;;;;;;;8.63;5.17;;;;;3.80;95440.00;;;;8396952;28;20229;-80
2022/01/31 19:35:45;;;;;;;3.83;3.03;;;;;3.80;95448.00;;;;8398418;28;20311;-80
2022/01/31 19:44:09;;;;;;;3.93;3.53;;;;;3.80;95468.00;;;;8397976;28;20226;-80
2022/01/31 19:48:13;;;;;;;7.80;3.93;;;;;3.90;95458.00;;;;8396727;28;20223;-79
2022/01/31 19:52:18;;;;;;;3.67;2.03;;;;;3.90;95460.00;;;;8402262;28;20233;-78
2022/01/31 19:56:21;;;;;;;1.60;1.50;;;;;3.90;95476.00;;;;8390707;28;20241;-78
2022/01/31 20:00:24;;;;;;;1.90;1.77;;;;;3.90;95481.00;;;;8395721;28;20274;-78
2022/01/31 20:04:27;;;;;;;2.30;1.90;;;;;3.90;95472.00;;;;8397703;28;20293;-79
2022/01/31 20:08:31;;;;;;;1.70;1.47;;;;;3.90;95485.00;;;;8399241;28;20222;-78
2022/01/31 20:12:34;;;;;;;1.60;1.50;;;;;3.90;95494.00;;;;8399993;28;20222;-76
2022/01/31 20:16:37;;;;;;;1.67;1.43;;;;;3.90;95504.00;;;;8395574;28;20242;-77
2022/01/31 20:20:43;;;;;;;1.40;1.30;;;;;3.90;95503.00;;;;8402105;28;20223;-76
2022/01/31 20:24:47;;;;;;;2.10;1.87;;;;;3.90;95508.00;;;;8400755;28;20327;-76
2022/01/31 20:28:51;;;;;;;1.73;1.60;;;;;3.90;95516.00;;;;8398921;28;20753;-77
2022/01/31 20:32:54;;;;;;;3.40;1.77;;;;;3.90;95510.00;;;;8399419;28;20288;-77
2022/01/31 20:37:02;;;;;;;1.80;1.67;;;;;3.80;95528.00;;;;8402754;28;20229;-77
2022/01/31 20:41:21;;;;;;;2.73;2.23;;;;;3.80;95517.00;;;;8409540;28;20224;-77
2022/01/31 20:45:25;;;;;;;2.53;1.40;;;;;3.80;95516.00;;;;8409361;28;20297;-77
2022/01/31 20:49:28;;;;;;;2.73;2.10;;;;;3.80;95514.00;;;;8413844;28;20222;-78
2022/01/31 20:53:32;;;;;;;2.00;1.90;;;;;3.80;95518.00;;;;8410943;28;20223;-78
2022/01/31 20:57:37;;;;;;;2.17;1.50;;;;;3.80;95519.00;;;;8406889;28;20233;-76
2022/01/31 21:01:40;;;;;;;2.50;2.03;;;;;3.80;95529.00;;;;8405230;28;20249;-77